LPPRLPFR

Guest
Details From LPPR - Porto
To LPFR - Faro
Flight Number -
Tags generated
Created
Modified
Stats Distance 256 nm / 475 km
Max Altitude 29,800 ft / 9,083 m
Waypoints 5
Social Downloads 1
Likes 0
Share VATSIM

Download

Looking for another format? Having issues loading an existing format? Contact us
Advertisement - Login to hide

Notes

Basic altitude profile: - Ascent Rate: 2500ft/min - Ascent Speed: 250kts - Cruise Altitude: 31000ft - Cruise Speed: 480kts - Descent Rate: 1800ft/min - Descent Speed: 250kts

Route

LPPR FTM UP600 SOTEX LPFR

ID Type Via Altitude Latitude Longitude Leg Dist Tot Dist Heading (true) Name
O LPPR APT - 0 ft / 0 m 41.24793˚ -8.68122˚ - 0 nm - Porto
FTM VOR - 29,800 ft / 9,083 m 39.66608˚ -8.49321˚ 95 nm 95 nm 175° / 175° FATIMA VOR-DME
MAGUM FIX UP600 (AWY-HI) 29,400 ft / 8,961 m 39.16750˚ -8.39250˚ 30 nm 125 nm 171° / 171° -
SOTEX FIX UP600 (AWY-HI) 19,500 ft / 5,944 m 38.29278˚ -8.22000˚ 53 nm 178 nm 171° / 171° -
O LPFR APT - 0 ft / 0 m 37.01534˚ -7.97233˚ 77 nm 256 nm 171° / 171° Faro

Altitude Profile

Advertisement - Login to hide

Weather


0- 5 10 15 20 25 30 35+ Temperature / ° C

Clouds and Precipitation
Forecast for 2017-12-18 00:00 UTC. Updated an hour ago

Ground ~20,000 ft ~40,000 ft Winds

LPPR

Details ICAO LPPR (OPO)
Name Porto
Region Portugal
Timezone Europe/Lisbon (UTC+0.0)
Stats Elevation 228 ft / 69 m (AMSL)
Location 41.247932° -8.681221°
Runways 1
Magnetic Variation 2.338° W

METAR

LPPR 172000Z 12003KT 080V190 CAVOK 06/04 Q1034

Decode

TAF

TAF LPPR 171700Z 1718/1818 36005KT CAVOK BECMG 1718/1720 VRB03KT BECMG 1721/1723 08005KT BECMG 1809/1811 VRB03KT BECMG 1813/1815 35007KT

Decode

Departure Runways

ID Width Length Bearing (true) Bearing (mag) Surface Threshold Offset Overrun Length
17 148 ft / 45 m 11,451 ft / 3,490 m 168.88° 171.22° Asphalt 984 ft / 300 m 220 ft / 67 m
35 148 ft / 45 m 11,451 ft / 3,490 m 348.89° 351.23° Asphalt 492 ft / 150 m 370 ft / 113 m

LPFR

Details ICAO LPFR (FAO)
Name Faro
Region Portugal
Timezone Europe/Lisbon (UTC+0.0)
Stats Elevation 24 ft / 7 m (AMSL)
Location 37.015336° -7.972327°
Runways 1
Magnetic Variation 1.935° W

METAR

LPFR 172000Z 02008KT 020V130 CAVOK 12/00 Q1030

Decode

TAF

TAF LPFR 171700Z 1718/1818 06010KT CAVOK BECMG 1718/1720 02007KT BECMG 1805/1807 08013KT

Decode

Destination Runways

ID Width Length Bearing (true) Bearing (mag) Surface Threshold Offset Overrun Length
10 148 ft / 45 m 8,148 ft / 2,484 m 100.08° 102.01° Asphalt 148 ft / 45 m 0 ft / 0 m
28 148 ft / 45 m 8,148 ft / 2,484 m 280.10° 282.03° Asphalt 148 ft / 45 m 0 ft / 0 m

Approach Navaids

Runway Type Ident Frequency Range Bearing (true) Bearing (mag) Slope Elevation
28 Localiser IIF 109.50 MHz 18 nm / 33 km 280.16° 282.10° - 24 ft / 7 m (AMSL)
28 Glidescope IIF 109.50 MHz 10 nm / 19 km 280.09° 282.02° 3.00° 24 ft / 7 m (AMSL)
28 DME IIF 109.50 MHz 18 nm / 33 km - - - 24 ft / 7 m (AMSL)

Popular Alternatives